createdAt,value
2018-01-12T00:00:01.863Z,88.30
2018-01-12T00:02:30.679Z,88.42
2018-01-12T00:04:59.163Z,89.05
2018-01-12T00:07:27.476Z,88.99
2018-01-12T00:09:55.977Z,88.86
2018-01-12T00:12:24.283Z,88.84
2018-01-12T00:14:53.079Z,89.38
2018-01-12T00:17:21.431Z,89.73
2018-01-12T00:19:49.742Z,89.79
2018-01-12T00:22:18.047Z,90.34
2018-01-12T00:24:46.795Z,90.54
2018-01-12T00:27:15.104Z,90.30
2018-01-12T00:29:43.409Z,90.13
2018-01-12T00:32:11.752Z,90.27
2018-01-12T00:34:40.124Z,90.08
2018-01-12T00:37:09.346Z,89.77
2018-01-12T00:39:38.335Z,89.45
2018-01-12T00:42:09.076Z,89.23
2018-01-12T00:44:37.401Z,89.62
2018-01-12T00:47:05.734Z,89.92
2018-01-12T00:49:34.060Z,89.53
2018-01-12T00:52:03.028Z,89.26
2018-01-12T00:54:31.331Z,88.66
2018-01-12T00:56:59.751Z,88.52
2018-01-12T00:59:28.807Z,88.64
2018-01-12T01:01:57.119Z,87.96
2018-01-12T01:04:25.423Z,87.40
2018-01-12T01:06:54.101Z,87.44
2018-01-12T01:09:22.408Z,88.43
2018-01-12T01:11:50.720Z,89.08
2018-01-12T01:14:19.084Z,89.25
2018-01-12T01:16:47.387Z,89.32
2018-01-12T01:19:15.691Z,89.84
2018-01-12T01:21:44.031Z,89.79
2018-01-12T01:24:13.992Z,89.69
2018-01-12T01:26:42.304Z,89.53
2018-01-12T01:29:11.260Z,89.55
2018-01-12T01:31:39.571Z,89.65
2018-01-12T01:34:08.884Z,89.74
2018-01-12T01:36:37.215Z,89.88
2018-01-12T01:39:06.091Z,89.74
2018-01-12T01:41:34.403Z,89.86
2018-01-12T01:44:02.716Z,89.71
2018-01-12T01:46:31.731Z,89.70
2018-01-12T01:49:00.811Z,89.84
2018-01-12T01:51:29.119Z,89.90
2018-01-12T01:53:57.831Z,90.16
2018-01-12T01:56:26.131Z,90.21
2018-01-12T01:58:54.432Z,90.36
2018-01-12T02:01:22.940Z,89.98
2018-01-12T02:03:51.275Z,89.81
2018-01-12T02:06:20.321Z,89.34
2018-01-12T02:08:48.683Z,89.26
2018-01-12T02:11:17.030Z,89.25
2018-01-12T02:13:45.387Z,89.08
2018-01-12T02:16:14.206Z,89.62
2018-01-12T02:18:42.567Z,89.85
2018-01-12T02:21:11.283Z,89.83
2018-01-12T02:23:40.255Z,89.83
2018-01-12T02:26:08.998Z,89.79
2018-01-12T02:28:37.307Z,90.04
2018-01-12T02:31:05.664Z,89.88
2018-01-12T02:33:35.682Z,89.78
2018-01-12T02:36:04.029Z,89.57
2018-01-12T02:38:32.727Z,89.32
2018-01-12T02:41:01.031Z,88.96
2018-01-12T02:43:29.345Z,88.02
2018-01-12T02:45:58.080Z,87.47
2018-01-12T02:48:26.387Z,86.88
2018-01-12T02:50:54.687Z,86.91
2018-01-12T02:53:23.292Z,86.88
2018-01-12T02:55:52.304Z,86.92
2018-01-12T02:58:20.611Z,86.97
2018-01-12T03:00:49.588Z,87.10
2018-01-12T03:03:17.895Z,86.67
2018-01-12T03:05:47.192Z,86.44
2018-01-12T03:08:16.061Z,86.72
2018-01-12T03:10:44.423Z,86.78
2018-01-12T03:13:12.727Z,86.90
2018-01-12T03:15:41.888Z,86.83
2018-01-12T03:18:10.195Z,86.62
2018-01-12T03:20:38.499Z,86.67
2018-01-12T03:23:06.860Z,86.92
2018-01-12T03:25:35.880Z,86.87
2018-01-12T03:28:04.187Z,86.74
2018-01-12T03:30:32.537Z,86.72
2018-01-12T03:33:00.851Z,86.42
2018-01-12T03:35:29.647Z,86.34
2018-01-12T03:37:58.659Z,86.32
2018-01-12T03:40:26.965Z,86.41
2018-01-12T03:42:55.276Z,86.15
2018-01-12T03:45:23.685Z,86.19
2018-01-12T03:47:52.045Z,86.19
2018-01-12T03:50:20.350Z,86.26
2018-01-12T03:52:48.960Z,86.56
2018-01-12T03:55:17.263Z,86.40
2018-01-12T03:57:45.676Z,86.39
2018-01-12T04:00:14.116Z,86.39
2018-01-12T04:02:42.488Z,86.42
2018-01-12T04:05:10.799Z,86.42
2018-01-12T04:07:39.319Z,86.51
2018-01-12T04:10:07.626Z,87.11
2018-01-12T04:12:35.932Z,87.50
2018-01-12T04:15:05.400Z,87.47
2018-01-12T04:17:33.907Z,87.50
2018-01-12T04:20:02.213Z,87.33
2018-01-12T04:22:30.559Z,87.31
2018-01-12T04:24:59.975Z,87.18
2018-01-12T04:27:28.468Z,87.42
2018-01-12T04:29:56.821Z,87.16
2018-01-12T04:32:25.128Z,87.32
2018-01-12T04:34:53.433Z,87.59
2018-01-12T04:37:21.779Z,87.72
2018-01-12T04:39:50.143Z,87.66
2018-01-12T04:42:18.416Z,87.52
2018-01-12T04:44:47.028Z,87.45
2018-01-12T04:47:15.335Z,87.60
2018-01-12T04:49:43.648Z,87.75
2018-01-12T04:52:13.147Z,87.33
2018-01-12T04:54:42.219Z,87.50
2018-01-12T04:57:10.533Z,87.62
2018-01-12T04:59:38.892Z,87.76
2018-01-12T05:02:07.438Z,87.50
2018-01-12T05:04:35.947Z,86.72
2018-01-12T05:07:04.296Z,87.11
2018-01-12T05:09:32.604Z,86.70
2018-01-12T05:12:00.924Z,86.68
2018-01-12T05:14:29.276Z,86.08
2018-01-12T05:16:58.356Z,86.40
2018-01-12T05:19:26.666Z,86.26
2018-01-12T05:21:55.176Z,87.13
2018-01-12T05:24:23.496Z,87.55
2018-01-12T05:26:51.800Z,87.33
2018-01-12T05:29:20.822Z,87.19
2018-01-12T05:31:49.124Z,86.71
2018-01-12T05:36:45.896Z,86.39
2018-01-12T05:39:14.477Z,85.83
2018-01-12T05:41:42.775Z,85.78
2018-01-12T05:44:11.844Z,85.88
2018-01-12T05:46:40.334Z,85.92
2018-01-12T05:49:08.975Z,85.86
2018-01-12T05:51:37.276Z,85.69
2018-01-12T05:54:06.271Z,85.59
2018-01-12T05:56:34.572Z,85.58
2018-01-12T05:59:02.876Z,85.43
2018-01-12T06:01:48.769Z,85.71
2018-01-12T06:04:34.509Z,86.16
2018-01-12T06:07:02.896Z,86.31
2018-01-12T06:09:31.196Z,86.21
2018-01-12T06:11:59.508Z,86.43
2018-01-12T06:14:27.866Z,86.79
2018-01-12T06:16:56.172Z,86.49
2018-01-12T06:19:24.512Z,86.55
2018-01-12T06:24:20.563Z,86.23
2018-01-12T06:26:48.973Z,85.99
2018-01-12T06:29:18.165Z,86.22
2018-01-12T06:31:46.467Z,85.61
2018-01-12T06:34:14.803Z,85.49
2018-01-12T06:36:43.143Z,85.46
2018-01-12T06:39:11.443Z,85.66
2018-01-12T06:41:40.398Z,85.83
2018-01-12T06:44:09.567Z,85.62
2018-01-12T06:46:37.867Z,85.59
2018-01-12T06:49:06.215Z,85.57
2018-01-12T06:51:34.909Z,85.49
2018-01-12T06:54:03.212Z,85.45
2018-01-12T06:56:31.673Z,85.84
2018-01-12T06:59:00.028Z,85.65
2018-01-12T07:01:28.340Z,84.99
2018-01-12T07:03:56.643Z,84.99
2018-01-12T07:06:24.985Z,84.89
2018-01-12T07:08:53.301Z,84.81
2018-01-12T07:11:21.730Z,84.76
2018-01-12T07:13:50.095Z,84.48
2018-01-12T07:16:18.701Z,84.46
2018-01-12T07:18:47.203Z,84.48
2018-01-12T07:21:33.511Z,84.16
2018-01-12T07:24:01.911Z,84.10
2018-01-12T07:26:30.987Z,83.91
2018-01-12T07:28:59.347Z,83.77
2018-01-12T07:31:27.653Z,83.35
2018-01-12T07:33:56.487Z,83.19
2018-01-12T07:36:24.911Z,82.86
2018-01-12T07:38:53.212Z,82.05
2018-01-12T07:41:22.287Z,81.81
2018-01-12T07:43:51.752Z,81.79
2018-01-12T07:46:20.518Z,81.40
2018-01-12T07:48:48.820Z,81.36
2018-01-12T07:51:17.268Z,81.10
2018-01-12T07:53:46.336Z,80.72
2018-01-12T07:56:14.651Z,79.61
2018-01-12T07:58:43.420Z,79.14
2018-01-12T08:01:17.416Z,78.59
2018-01-12T08:03:45.763Z,78.36
2018-01-12T08:06:14.059Z,78.00
2018-01-12T08:08:42.363Z,77.50
2018-01-12T08:11:10.803Z,77.38
2018-01-12T08:13:39.119Z,76.59
2018-01-12T08:16:08.188Z,76.31
2018-01-12T08:18:36.914Z,76.84
2018-01-12T08:21:05.527Z,77.55
2018-01-12T08:23:33.823Z,78.37
2018-01-12T08:26:02.431Z,78.34
2018-01-12T08:28:30.858Z,78.06
2018-01-12T08:33:33.549Z,77.89
2018-01-12T08:36:01.851Z,77.91
2018-01-12T08:38:30.194Z,77.54
2018-01-12T08:40:59.706Z,77.43
2018-01-12T08:43:28.318Z,77.00
2018-01-12T08:45:56.623Z,76.23
2018-01-12T08:48:24.963Z,75.54
2018-01-12T08:50:53.380Z,74.94
2018-01-12T08:53:21.686Z,75.58
2018-01-12T08:55:50.038Z,75.60
2018-01-12T08:58:18.335Z,75.50
2018-01-12T09:00:46.650Z,74.63
2018-01-12T09:03:14.987Z,74.71
2018-01-12T09:05:43.340Z,74.26
2018-01-12T09:08:11.820Z,74.76
2018-01-12T09:10:40.623Z,75.49
2018-01-12T09:13:26.490Z,75.26
2018-01-12T09:16:07.119Z,75.25
2018-01-12T09:18:49.923Z,75.24
2018-01-12T09:21:26.146Z,75.64
2018-01-12T09:23:57.163Z,75.60
2018-01-12T09:26:25.515Z,75.25
2018-01-12T09:28:53.958Z,75.38
2018-01-12T09:31:44.351Z,74.91
2018-01-12T09:34:30.111Z,73.99
2018-01-12T09:36:58.467Z,74.16
2018-01-12T09:39:43.303Z,73.56
2018-01-12T09:42:11.639Z,73.92
2018-01-12T09:44:39.935Z,74.57
2018-01-12T09:47:22.862Z,75.37
2018-01-12T09:49:51.163Z,73.73
2018-01-12T09:52:20.443Z,73.98
2018-01-12T09:54:49.492Z,73.27
2018-01-12T09:57:17.799Z,72.24
2018-01-12T09:59:46.494Z,72.17
2018-01-12T10:02:15.111Z,72.88
2018-01-12T10:04:43.410Z,71.90
2018-01-12T10:07:20.067Z,71.88
2018-01-12T10:09:50.698Z,71.45
2018-01-12T10:12:19.555Z,71.13
2018-01-12T10:14:47.855Z,70.53
2018-01-12T10:17:16.167Z,71.15
2018-01-12T10:20:19.004Z,72.09
2018-01-12T10:22:47.308Z,72.02
2018-01-12T10:25:16.057Z,71.47
2018-01-12T10:27:44.408Z,72.22
2018-01-12T10:30:23.242Z,72.41
2018-01-12T10:46:43.259Z,70.91
2018-01-12T10:49:27.783Z,69.85
2018-01-12T10:52:11.638Z,69.61
2018-01-12T10:54:40.031Z,70.62
2018-01-12T10:57:08.788Z,71.27
2018-01-12T10:59:37.603Z,71.81
2018-01-12T11:02:06.666Z,71.63
2018-01-12T11:04:34.967Z,71.70
2018-01-12T11:07:03.308Z,71.78
2018-01-12T11:09:31.611Z,70.67
2018-01-12T11:11:59.918Z,69.11
2018-01-12T11:14:28.253Z,69.71
2018-01-12T11:16:56.555Z,70.57
2018-01-12T11:19:25.625Z,71.29
2018-01-12T11:21:54.401Z,70.84
2018-01-12T11:24:22.972Z,69.42
2018-01-12T11:26:51.272Z,69.53
2018-01-12T11:29:19.939Z,68.87
2018-01-12T11:31:48.251Z,68.79
2018-01-12T11:34:16.863Z,69.23
2018-01-12T11:36:45.219Z,69.09
2018-01-12T11:39:13.522Z,69.55
2018-01-12T11:41:42.483Z,69.56
2018-01-12T11:44:11.588Z,69.25
2018-01-12T11:46:40.012Z,69.26
2018-01-12T11:49:08.331Z,69.54
2018-01-12T11:51:36.703Z,69.19
2018-01-12T11:54:04.999Z,69.63
2018-01-12T11:56:34.075Z,70.73
2018-01-12T11:59:02.507Z,71.96
2018-01-12T12:01:30.807Z,72.80
2018-01-12T12:03:59.114Z,74.01
2018-01-12T12:06:27.755Z,73.46
2018-01-12T12:08:56.066Z,73.52
2018-01-12T12:11:24.366Z,73.58
2018-01-12T12:13:53.480Z,74.68
2018-01-12T12:16:21.852Z,74.25
2018-01-12T12:18:50.159Z,74.25
2018-01-12T12:21:18.512Z,73.86
2018-01-12T12:23:46.829Z,73.92
2018-01-12T12:26:15.903Z,73.34
2018-01-12T12:28:44.249Z,72.45
2018-01-12T12:31:12.592Z,71.94
2018-01-12T12:33:40.903Z,72.90
2018-01-12T12:36:09.255Z,72.44
2018-01-12T12:38:37.555Z,71.89
2018-01-12T12:41:05.854Z,71.24
2018-01-12T12:43:34.191Z,71.32
2018-01-12T12:46:02.496Z,72.16
2018-01-12T12:48:30.799Z,71.63
2018-01-12T12:50:59.405Z,72.01
2018-01-12T12:53:27.712Z,71.64
2018-01-12T12:55:56.003Z,71.91
2018-01-12T12:58:24.991Z,72.21
2018-01-12T13:00:53.303Z,72.29
2018-01-12T13:03:21.605Z,72.58
2018-01-12T13:05:50.059Z,72.69
2018-01-12T13:08:18.979Z,71.67
2018-01-12T13:10:47.283Z,70.86
2018-01-12T13:13:16.305Z,70.25
2018-01-12T13:15:44.615Z,69.37
2018-01-12T13:18:12.968Z,69.85
2018-01-12T13:20:41.547Z,69.08
2018-01-12T13:23:09.856Z,69.57
2018-01-12T13:25:38.156Z,67.89
2018-01-12T13:28:06.515Z,66.23
2018-01-12T13:30:34.815Z,65.78
2018-01-12T13:33:03.119Z,66.11
2018-01-12T13:35:31.720Z,65.97
2018-01-12T13:38:00.778Z,65.17
2018-01-12T13:40:29.079Z,65.08
2018-01-12T13:42:57.767Z,65.40
2018-01-12T13:45:26.075Z,65.85
2018-01-12T13:47:55.146Z,66.16
2018-01-12T13:50:23.991Z,65.40
2018-01-12T13:52:52.402Z,64.34
2018-01-12T13:55:20.707Z,64.30
2018-01-12T13:57:49.056Z,64.44
2018-01-12T14:00:17.965Z,64.48
2018-01-12T14:02:46.703Z,64.46
2018-01-12T14:05:15.042Z,66.96
2018-01-12T14:07:43.699Z,67.60
2018-01-12T14:10:12.005Z,68.10
2018-01-12T14:12:40.351Z,68.86
2018-01-12T14:15:08.657Z,70.00
2018-01-12T14:17:37.042Z,69.90
2018-01-12T14:20:05.647Z,70.57
2018-01-12T14:22:33.947Z,70.35
2018-01-12T14:25:02.248Z,70.29
2018-01-12T14:27:31.559Z,71.74
2018-01-12T14:29:59.855Z,72.22
2018-01-12T14:32:28.162Z,72.44
2018-01-12T14:34:56.552Z,72.81
2018-01-12T14:37:24.863Z,73.78
2018-01-12T14:39:53.292Z,74.50
2018-01-12T14:42:21.650Z,74.94
2018-01-12T14:44:50.035Z,74.64
2018-01-12T14:47:19.081Z,74.85
2018-01-12T14:49:47.600Z,74.83
2018-01-12T14:52:15.923Z,74.60
2018-01-12T14:54:44.300Z,74.52
2018-01-12T14:57:12.767Z,75.96
2018-01-12T14:59:41.079Z,76.99
2018-01-12T15:02:09.370Z,76.59
2018-01-12T15:04:37.716Z,76.42
2018-01-12T15:07:06.141Z,76.23
2018-01-12T15:09:34.403Z,76.17
2018-01-12T15:12:02.850Z,75.70
2018-01-12T15:14:31.152Z,75.45
2018-01-12T15:16:59.460Z,75.77
2018-01-12T15:19:28.671Z,75.36
2018-01-12T15:21:56.975Z,76.08
2018-01-12T15:24:25.276Z,75.82
2018-01-12T15:26:53.731Z,76.14
2018-01-12T15:29:22.035Z,76.24
2018-01-12T15:31:51.019Z,75.49
2018-01-12T15:34:19.391Z,75.87
2018-01-12T15:36:47.691Z,76.14
2018-01-12T15:39:16.032Z,76.26
2018-01-12T15:41:45.239Z,76.28
2018-01-12T15:44:13.553Z,76.54
2018-01-12T15:46:41.854Z,76.83
2018-01-12T15:49:11.435Z,76.59
2018-01-12T15:51:39.743Z,76.34
2018-01-12T15:54:08.052Z,76.57
2018-01-12T15:56:36.385Z,76.13
2018-01-12T15:59:04.699Z,76.58
2018-01-12T16:01:33.007Z,76.61
2018-01-12T16:04:01.356Z,76.41
2018-01-12T16:06:29.659Z,76.60
2018-01-12T16:08:57.965Z,76.60
2018-01-12T16:11:26.655Z,76.70
2018-01-12T16:13:55.623Z,76.84
2018-01-12T16:16:23.964Z,76.62
2018-01-12T16:18:52.603Z,76.85
2018-01-12T16:21:20.906Z,76.67
2018-01-12T16:23:49.285Z,76.68
2018-01-12T16:26:18.238Z,76.74
2018-01-12T16:28:46.542Z,76.89
2018-01-12T16:31:14.993Z,77.06
2018-01-12T16:33:43.300Z,77.28
2018-01-12T16:36:11.603Z,77.50
2018-01-12T16:38:40.230Z,77.71
2018-01-12T16:41:08.547Z,77.55
2018-01-12T16:43:37.008Z,76.99
2018-01-12T16:46:06.835Z,76.85
2018-01-12T16:48:35.903Z,76.85
2018-01-12T16:51:04.215Z,77.03
2018-01-12T16:53:33.426Z,76.76
2018-01-12T16:56:02.235Z,77.33
2018-01-12T16:58:30.574Z,77.12
2018-01-12T17:00:59.300Z,77.08
2018-01-12T17:03:28.156Z,77.07
2018-01-12T17:05:56.472Z,77.21
2018-01-12T17:08:25.310Z,77.28
2018-01-12T17:10:53.927Z,77.04
2018-01-12T17:13:22.247Z,76.99
2018-01-12T17:15:50.551Z,77.46
2018-01-12T17:18:19.268Z,77.14
2018-01-12T17:20:47.579Z,76.94
2018-01-12T17:23:16.259Z,76.83
2018-01-12T17:25:45.539Z,76.99
2018-01-12T17:28:14.879Z,77.22
2018-01-12T17:30:43.187Z,76.85
2018-01-12T17:33:12.100Z,76.64
2018-01-12T17:35:40.958Z,76.63
2018-01-12T17:38:10.104Z,76.61
2018-01-12T17:40:38.414Z,76.58
2018-01-12T17:43:06.592Z,76.85
2018-01-12T17:45:34.831Z,76.77
2018-01-12T17:48:03.304Z,76.61
2018-01-12T17:50:31.606Z,77.23
2018-01-12T17:53:00.223Z,76.66
2018-01-12T17:55:28.547Z,76.62
2018-01-12T17:57:57.266Z,76.86
2018-01-12T18:00:25.576Z,76.89
2018-01-12T18:06:06.736Z,76.61
2018-01-12T18:08:35.116Z,76.68
2018-01-12T18:11:03.966Z,76.52
2018-01-12T18:13:32.316Z,76.88
2018-01-12T18:16:00.628Z,76.99
2018-01-12T18:18:29.027Z,77.02
2018-01-12T18:20:57.339Z,76.73
2018-01-12T18:23:26.055Z,76.89
2018-01-12T18:25:54.360Z,77.10
2018-01-12T18:28:22.738Z,77.47
2018-01-12T18:30:51.087Z,76.83
2018-01-12T18:33:19.400Z,76.59
2018-01-12T18:35:47.760Z,76.85
2018-01-12T18:38:16.063Z,76.13
2018-01-12T18:40:44.372Z,76.34
2018-01-12T18:43:13.058Z,76.24
2018-01-12T18:45:41.192Z,76.56
2018-01-12T18:48:09.387Z,76.28
2018-01-12T18:50:37.583Z,76.18
2018-01-12T18:53:05.979Z,76.63
2018-01-12T18:55:34.764Z,76.75
2018-01-12T18:58:03.835Z,76.99
2018-01-12T19:00:32.157Z,76.88
2018-01-12T19:03:00.607Z,76.99
2018-01-12T19:05:29.996Z,77.44
2018-01-12T19:07:58.316Z,77.55
2018-01-12T19:10:28.028Z,77.35
2018-01-12T19:12:56.371Z,77.51
2018-01-12T19:15:24.679Z,77.72
2018-01-12T19:17:53.427Z,77.73
2018-01-12T19:20:22.612Z,77.72
2018-01-12T19:22:50.927Z,77.97
2018-01-12T19:25:19.884Z,77.87
2018-01-12T19:27:48.195Z,77.97
2018-01-12T19:30:16.524Z,77.93
2018-01-12T19:32:44.939Z,78.35
2018-01-12T19:35:13.243Z,78.34
2018-01-12T19:37:42.308Z,78.07
2018-01-12T19:40:10.838Z,77.62
2018-01-12T19:42:39.051Z,77.64
2018-01-12T19:45:08.853Z,77.76
2018-01-12T19:47:38.575Z,78.08
2018-01-12T19:50:06.960Z,78.12
2018-01-12T19:52:35.479Z,77.91
2018-01-12T19:55:04.458Z,78.16
2018-01-12T19:57:32.829Z,78.45
2018-01-12T20:00:01.487Z,78.42
2018-01-12T20:02:29.935Z,78.48
2018-01-12T20:04:58.563Z,78.65
2018-01-12T20:07:27.239Z,78.80
2018-01-12T20:09:55.756Z,78.73
2018-01-12T20:12:24.931Z,78.21
2018-01-12T20:14:53.319Z,78.58
2018-01-12T20:17:21.947Z,78.45
2018-01-12T20:19:50.251Z,78.26
2018-01-12T20:22:18.700Z,78.10
2018-01-12T20:24:47.011Z,78.56
2018-01-12T20:27:15.318Z,78.31
2018-01-12T20:29:44.468Z,78.21
2018-01-12T20:32:12.813Z,78.31
2018-01-12T20:34:41.119Z,77.91
2018-01-12T20:37:09.607Z,78.39
2018-01-12T20:39:38.296Z,77.82
2018-01-12T20:42:06.708Z,77.97
2018-01-12T20:44:35.058Z,78.15
2018-01-12T20:47:03.507Z,78.13
2018-01-12T20:49:31.821Z,78.42
2018-01-12T20:52:00.304Z,78.02
2018-01-12T20:54:28.675Z,77.91
2018-01-12T20:56:57.040Z,77.94
2018-01-12T20:59:25.955Z,78.12
2018-01-12T21:01:54.356Z,78.02
2018-01-12T21:04:22.656Z,78.00
2018-01-12T21:06:50.963Z,78.10
2018-01-12T21:09:19.699Z,78.08
2018-01-12T21:11:48.000Z,78.24
2018-01-12T21:14:17.371Z,77.98
2018-01-12T21:16:45.721Z,78.01
2018-01-12T21:19:14.595Z,78.13
2018-01-12T21:21:42.920Z,78.08
2018-01-12T21:24:11.232Z,78.17
2018-01-12T21:26:39.848Z,78.06
2018-01-12T21:29:11.407Z,77.97
2018-01-12T21:31:39.878Z,77.96
2018-01-12T21:34:08.648Z,78.13
2018-01-12T21:36:37.900Z,77.66
2018-01-12T21:39:07.323Z,77.71
2018-01-12T21:41:36.591Z,76.97
2018-01-12T21:44:05.352Z,77.13
2018-01-12T21:46:34.296Z,77.38
2018-01-12T21:49:03.388Z,77.34
2018-01-12T21:51:32.624Z,77.26
2018-01-12T21:54:00.927Z,77.35
2018-01-12T21:56:29.985Z,77.46
2018-01-12T21:58:58.347Z,77.35
2018-01-12T22:01:27.935Z,77.03
2018-01-12T22:03:56.450Z,77.07
2018-01-12T22:06:24.751Z,77.17
2018-01-12T22:08:53.104Z,77.18
2018-01-12T22:11:22.445Z,77.21
2018-01-12T22:13:50.751Z,77.42
2018-01-12T22:16:19.339Z,77.30
2018-01-12T22:18:48.331Z,77.35
2018-01-12T22:21:16.635Z,77.32
2018-01-12T22:23:44.986Z,77.20
2018-01-12T22:26:13.324Z,77.30
2018-01-12T22:28:41.675Z,77.39
2018-01-12T22:31:10.001Z,77.16
2018-01-12T22:33:38.348Z,77.34
2018-01-12T22:36:06.648Z,77.75
2018-01-12T22:38:34.950Z,77.79
2018-01-12T22:41:03.322Z,77.69
2018-01-12T22:43:31.632Z,77.39
2018-01-12T22:45:59.945Z,77.61
2018-01-12T22:48:29.287Z,77.71
2018-01-12T22:50:57.591Z,77.44
2018-01-12T22:53:25.900Z,77.57
2018-01-12T22:55:54.255Z,77.49
2018-01-12T22:58:22.557Z,77.63
2018-01-12T23:00:50.905Z,77.49
2018-01-12T23:03:19.288Z,76.96
2018-01-12T23:05:48.355Z,76.71
2018-01-12T23:08:16.659Z,76.45
2018-01-12T23:10:45.832Z,76.35
2018-01-12T23:13:14.135Z,76.56
2018-01-12T23:15:42.442Z,76.58
2018-01-12T23:18:10.796Z,76.68
2018-01-12T23:20:39.107Z,76.63
2018-01-12T23:23:07.453Z,76.52
2018-01-12T23:25:36.116Z,76.32
2018-01-12T23:28:04.435Z,76.02
2018-01-12T23:30:32.749Z,75.73
2018-01-12T23:33:01.142Z,75.82
2018-01-12T23:35:29.498Z,75.87
2018-01-12T23:37:57.808Z,75.78
2018-01-12T23:40:27.043Z,75.78
2018-01-12T23:42:55.351Z,75.98
2018-01-12T23:45:23.663Z,75.79
2018-01-12T23:47:52.819Z,75.31
2018-01-12T23:50:21.177Z,75.53
2018-01-12T23:52:49.529Z,75.47
2018-01-12T23:55:17.894Z,75.43
2018-01-12T23:57:46.195Z,75.51
